createdAt,value
2018-10-09T00:01:00.061Z,97.20
2018-10-09T00:03:28.256Z,97.10
2018-10-09T00:05:56.644Z,97.10
2018-10-09T00:08:24.939Z,97.10
2018-10-09T00:10:53.273Z,97.10
2018-10-09T00:13:21.706Z,97.10
2018-10-09T00:15:50.094Z,97.10
2018-10-09T00:18:18.377Z,97.10
2018-10-09T00:20:46.619Z,97.10
2018-10-09T00:23:14.881Z,97.00
2018-10-09T00:25:43.186Z,97.40
2018-10-09T00:33:11.576Z,97.00
2018-10-09T00:35:39.757Z,97.10
2018-10-09T00:38:07.979Z,97.20
2018-10-09T00:40:36.201Z,97.20
2018-10-09T00:43:04.403Z,97.20
2018-10-09T00:45:32.685Z,97.30
2018-10-09T00:48:00.910Z,97.40
2018-10-09T00:50:29.228Z,97.40
2018-10-09T00:52:57.503Z,97.40
2018-10-09T00:55:25.730Z,97.50
2018-10-09T00:57:54.082Z,97.70
2018-10-09T01:00:22.281Z,97.60
2018-10-09T01:02:50.504Z,97.60
2018-10-09T01:05:18.778Z,97.50
2018-10-09T01:07:47.910Z,97.40
2018-10-09T01:10:16.107Z,97.50
2018-10-09T01:13:05.311Z,97.50
2018-10-09T01:15:34.134Z,97.60
2018-10-09T01:18:02.288Z,97.60
2018-10-09T01:20:32.635Z,97.50
2018-10-09T01:23:01.585Z,97.50
2018-10-09T01:25:29.886Z,97.50
2018-10-09T01:27:58.718Z,97.50
2018-10-09T01:30:26.971Z,97.50
2018-10-09T01:32:55.700Z,97.70
2018-10-09T01:35:23.881Z,97.70
2018-10-09T01:37:52.405Z,97.90
2018-10-09T01:40:20.669Z,98.20
2018-10-09T01:42:48.941Z,98.00
2018-10-09T01:45:18.864Z,97.90
2018-10-09T01:47:47.240Z,97.90
2018-10-09T01:50:15.523Z,97.90
2018-10-09T01:52:43.816Z,97.90
2018-10-09T01:55:12.118Z,97.90
2018-10-09T01:57:40.415Z,97.80
2018-10-09T02:00:09.734Z,97.90
2018-10-09T02:02:37.989Z,97.90
2018-10-09T02:05:06.514Z,97.90
2018-10-09T02:07:34.785Z,98.10
2018-10-09T02:10:02.984Z,98.10
2018-10-09T02:12:31.411Z,98.10
2018-10-09T02:15:00.748Z,98.10
2018-10-09T02:17:28.945Z,98.00
2018-10-09T02:19:57.213Z,98.00
2018-10-09T02:22:25.435Z,97.90
2018-10-09T02:24:55.558Z,98.40
2018-10-09T02:27:23.822Z,98.10
2018-10-09T02:29:52.027Z,98.10
2018-10-09T02:32:20.293Z,98.10
2018-10-09T02:34:48.575Z,98.20
2018-10-09T02:37:16.784Z,98.30
2018-10-09T02:39:45.227Z,98.30
2018-10-09T02:42:13.421Z,98.90
2018-10-09T02:44:41.708Z,98.60
2018-10-09T02:47:10.786Z,98.60
2018-10-09T02:49:39.140Z,98.60
2018-10-09T02:52:07.562Z,98.70
2018-10-09T02:54:35.802Z,98.60
2018-10-09T02:57:04.012Z,98.40
2018-10-09T02:59:32.213Z,98.30
2018-10-09T03:02:00.413Z,98.20
2018-10-09T03:04:30.151Z,98.10
2018-10-09T03:06:58.400Z,98.00
2018-10-09T03:09:26.678Z,98.10
2018-10-09T03:11:54.971Z,98.10
2018-10-09T03:14:23.325Z,97.90
2018-10-09T03:16:51.734Z,97.90
2018-10-09T03:19:20.048Z,97.80
2018-10-09T03:21:48.281Z,97.80
2018-10-09T03:24:16.506Z,97.70
2018-10-09T03:26:44.693Z,97.50
2018-10-09T03:29:13.428Z,97.90
2018-10-09T03:31:41.654Z,97.40
2018-10-09T03:34:09.898Z,97.40
2018-10-09T03:36:38.192Z,97.40
2018-10-09T03:39:06.960Z,97.40
2018-10-09T03:41:35.258Z,97.50
2018-10-09T03:50:55.343Z,97.40
2018-10-09T03:53:23.505Z,97.70
2018-10-09T03:55:51.706Z,97.70
2018-10-09T03:58:19.904Z,97.80
2018-10-09T04:00:48.219Z,97.80
2018-10-09T04:03:16.425Z,97.70
2018-10-09T04:05:44.736Z,97.80
2018-10-09T04:08:13.001Z,97.70
2018-10-09T04:10:41.470Z,97.80
2018-10-09T04:13:09.724Z,98.10
2018-10-09T04:15:38.024Z,98.20
2018-10-09T04:18:06.415Z,98.20
2018-10-09T04:20:35.919Z,98.50
2018-10-09T04:23:04.149Z,98.40
2018-10-09T04:25:32.384Z,98.40
2018-10-09T04:28:00.606Z,98.40
2018-10-09T04:30:28.857Z,98.40
2018-10-09T04:32:57.125Z,98.40
2018-10-09T04:35:25.345Z,98.50
2018-10-09T04:37:53.664Z,98.50
2018-10-09T04:40:22.179Z,98.40
2018-10-09T04:42:50.424Z,98.40
2018-10-09T04:45:18.618Z,98.40
2018-10-09T04:47:46.829Z,98.40
2018-10-09T04:50:15.185Z,98.40
2018-10-09T04:52:43.426Z,98.40
2018-10-09T04:55:12.117Z,98.60
2018-10-09T04:57:40.340Z,98.60
2018-10-09T05:00:09.855Z,98.40
2018-10-09T05:02:38.055Z,98.80
2018-10-09T05:05:06.285Z,98.70
2018-10-09T05:07:34.900Z,98.80
2018-10-09T05:10:03.101Z,98.80
2018-10-09T05:12:31.377Z,98.90
2018-10-09T05:14:59.653Z,98.90
2018-10-09T05:17:28.016Z,98.90
2018-10-09T05:19:56.336Z,98.90
2018-10-09T05:22:24.514Z,99.00
2018-10-09T05:24:52.708Z,99.10
2018-10-09T05:27:21.139Z,99.10
2018-10-09T05:29:49.476Z,99.30
2018-10-09T05:32:17.735Z,99.30
2018-10-09T05:34:45.969Z,99.30
2018-10-09T05:37:14.170Z,99.40
2018-10-09T05:39:43.781Z,99.20
2018-10-09T05:42:11.997Z,99.30
2018-10-09T05:44:40.383Z,99.10
2018-10-09T05:47:08.501Z,99.20
2018-10-09T05:49:36.665Z,99.20
2018-10-09T05:52:04.880Z,99.20
2018-10-09T05:54:33.146Z,99.30
2018-10-09T05:57:01.348Z,99.30
2018-10-09T05:59:29.599Z,99.20
2018-10-09T06:01:57.851Z,99.10
2018-10-09T06:04:26.065Z,99.20
2018-10-09T06:06:54.390Z,99.10
2018-10-09T06:09:22.630Z,99.00
2018-10-09T06:11:50.787Z,98.80
2018-10-09T06:14:19.069Z,98.80
2018-10-09T06:16:47.417Z,98.70
2018-10-09T06:24:14.870Z,98.30
2018-10-09T06:26:43.055Z,98.40
2018-10-09T06:29:11.329Z,98.20
2018-10-09T06:31:39.493Z,98.10
2018-10-09T06:34:07.846Z,97.90
2018-10-09T06:36:36.125Z,97.80
2018-10-09T06:39:06.241Z,97.50
2018-10-09T06:41:35.792Z,97.30
2018-10-09T06:44:04.005Z,97.00
2018-10-09T06:46:32.250Z,96.50
2018-10-09T06:49:00.417Z,96.10
2018-10-09T06:51:28.626Z,96.10
2018-10-09T06:53:57.041Z,96.10
2018-10-09T06:56:25.046Z,95.20
2018-10-09T06:58:53.559Z,95.30
2018-10-09T07:01:21.955Z,95.20
2018-10-09T07:03:50.345Z,94.90
2018-10-09T07:06:18.708Z,94.70
2018-10-09T07:08:47.108Z,94.40
2018-10-09T07:11:15.539Z,93.90
2018-10-09T07:13:44.147Z,93.40
2018-10-09T07:16:12.381Z,91.80
2018-10-09T07:18:40.617Z,91.90
2018-10-09T07:26:14.583Z,90.60
2018-10-09T07:28:43.509Z,90.80
2018-10-09T07:31:11.889Z,91.00
2018-10-09T07:33:40.055Z,91.10
2018-10-09T07:36:08.241Z,91.00
2018-10-09T07:38:36.492Z,90.80
2018-10-09T07:41:04.871Z,90.60
2018-10-09T07:43:33.100Z,90.80
2018-10-09T07:46:01.324Z,90.80
2018-10-09T07:48:29.543Z,91.10
2018-10-09T07:50:57.761Z,91.50
2018-10-09T07:53:26.238Z,92.00
2018-10-09T07:55:54.598Z,92.00
2018-10-09T07:58:22.883Z,91.00
2018-10-09T08:00:51.121Z,90.00
2018-10-09T08:03:19.330Z,87.70
2018-10-09T08:10:47.815Z,74.70
2018-10-09T08:13:16.024Z,73.20
2018-10-09T08:15:44.224Z,73.30
2018-10-09T08:18:12.758Z,75.50
2018-10-09T08:20:41.284Z,74.40
2018-10-09T08:23:09.827Z,71.30
2018-10-09T08:25:38.706Z,71.60
2018-10-09T08:28:08.314Z,68.90
2018-10-09T08:30:36.770Z,60.50
2018-10-09T08:33:05.336Z,52.50
2018-10-09T08:35:33.792Z,48.00
2018-10-09T08:38:02.052Z,45.30
2018-10-09T08:40:30.390Z,44.00
2018-10-09T08:42:58.593Z,43.60
2018-10-09T08:45:27.102Z,45.80
2018-10-09T08:47:55.574Z,45.30
2018-10-09T08:50:23.839Z,45.40
2018-10-09T08:52:52.185Z,43.50
2018-10-09T08:55:20.427Z,42.60
2018-10-09T08:57:48.682Z,41.40
2018-10-09T09:00:17.227Z,42.10
2018-10-09T09:02:45.489Z,41.90
2018-10-09T09:05:13.738Z,45.10
2018-10-09T09:07:43.803Z,51.10
2018-10-09T09:10:12.066Z,50.10
2018-10-09T09:12:40.314Z,46.70
2018-10-09T09:15:08.670Z,45.30
2018-10-09T09:17:36.897Z,45.00
2018-10-09T09:20:05.121Z,42.90
2018-10-09T09:22:33.342Z,43.40
2018-10-09T09:25:01.608Z,43.20
2018-10-09T09:27:29.937Z,41.80
2018-10-09T09:29:58.090Z,39.10
2018-10-09T09:32:26.360Z,37.60
2018-10-09T09:34:54.571Z,40.90
2018-10-09T09:37:22.833Z,46.50
2018-10-09T09:39:51.152Z,49.80
2018-10-09T09:42:19.457Z,51.90
2018-10-09T09:44:47.699Z,52.40
2018-10-09T09:47:16.813Z,51.00
2018-10-09T09:49:45.042Z,50.60
2018-10-09T09:52:13.339Z,51.50
2018-10-09T09:54:41.564Z,53.20
2018-10-09T09:57:09.811Z,52.40
2018-10-09T09:59:38.030Z,51.50
2018-10-09T10:02:06.582Z,50.50
2018-10-09T10:04:35.529Z,52.00
2018-10-09T10:07:07.395Z,54.00
2018-10-09T10:14:34.863Z,55.20
2018-10-09T10:17:03.083Z,57.70
2018-10-09T10:19:31.710Z,59.50
2018-10-09T10:22:00.114Z,59.40
2018-10-09T10:24:28.383Z,60.60
2018-10-09T10:26:56.617Z,62.70
2018-10-09T10:29:24.850Z,62.80
2018-10-09T10:31:55.125Z,63.70
2018-10-09T10:34:23.313Z,66.00
2018-10-09T10:36:51.621Z,67.30
2018-10-09T10:39:19.782Z,67.80
2018-10-09T10:41:47.935Z,66.50
2018-10-09T10:44:16.479Z,65.80
2018-10-09T10:46:44.819Z,67.10
2018-10-09T10:49:14.297Z,65.70
2018-10-09T10:51:42.577Z,65.10
2018-10-09T10:54:11.774Z,64.90
2018-10-09T10:56:40.082Z,64.90
2018-10-09T10:59:08.411Z,64.70
2018-10-09T11:01:36.711Z,64.70
2018-10-09T11:04:04.862Z,65.00
2018-10-09T11:06:33.239Z,64.30
2018-10-09T11:09:01.644Z,64.10
2018-10-09T11:11:29.947Z,63.90
2018-10-09T11:13:58.127Z,64.90
2018-10-09T11:16:26.431Z,66.60
2018-10-09T11:18:54.604Z,66.10
2018-10-09T11:21:23.064Z,66.10
2018-10-09T11:23:51.111Z,66.60
2018-10-09T11:26:19.345Z,67.80
2018-10-09T11:28:47.535Z,69.10
2018-10-09T11:31:15.864Z,69.90
2018-10-09T11:33:44.451Z,70.00
2018-10-09T11:36:12.707Z,68.60
2018-10-09T11:38:40.956Z,67.00
2018-10-09T11:41:09.193Z,66.50
2018-10-09T11:43:37.506Z,66.00
2018-10-09T11:46:05.894Z,66.40
2018-10-09T11:48:34.180Z,65.50
2018-10-09T11:51:02.380Z,65.00
2018-10-09T11:53:30.631Z,65.40
2018-10-09T11:55:59.078Z,65.70
2018-10-09T11:58:27.906Z,65.40
2018-10-09T12:00:58.961Z,64.30
2018-10-09T12:03:27.183Z,64.80
2018-10-09T12:05:55.621Z,65.00
2018-10-09T12:08:23.988Z,65.90
2018-10-09T12:10:52.202Z,63.90
2018-10-09T12:13:20.924Z,63.30
2018-10-09T12:15:50.036Z,63.60
2018-10-09T12:18:18.237Z,63.00
2018-10-09T12:20:46.749Z,61.80
2018-10-09T12:23:15.050Z,61.00
2018-10-09T12:25:43.425Z,60.60
2018-10-09T12:28:13.044Z,60.60
2018-10-09T12:30:41.293Z,61.70
2018-10-09T12:33:09.582Z,60.40
2018-10-09T12:35:38.738Z,59.70
2018-10-09T12:38:06.945Z,59.80
2018-10-09T12:40:35.210Z,60.20
2018-10-09T12:43:18.168Z,60.00
2018-10-09T12:45:48.114Z,59.50
2018-10-09T12:48:16.395Z,59.50
2018-10-09T12:50:44.620Z,59.40
2018-10-09T12:53:12.861Z,58.60
2018-10-09T12:55:41.077Z,59.10
2018-10-09T12:58:09.600Z,59.60
2018-10-09T13:00:37.879Z,60.40
2018-10-09T13:03:06.474Z,60.80
2018-10-09T13:05:34.659Z,61.70
2018-10-09T13:08:02.908Z,60.50
2018-10-09T13:10:31.584Z,60.70
2018-10-09T13:12:59.769Z,60.20
2018-10-09T13:15:28.045Z,60.20
2018-10-09T13:17:56.332Z,60.60
2018-10-09T13:20:24.571Z,61.00
2018-10-09T13:22:55.982Z,61.40
2018-10-09T13:25:24.264Z,61.60
2018-10-09T13:27:52.704Z,60.90
2018-10-09T13:30:21.143Z,60.40
2018-10-09T13:32:49.373Z,58.90
2018-10-09T13:35:17.810Z,59.10
2018-10-09T13:37:46.266Z,58.50
2018-10-09T13:40:14.603Z,58.60
2018-10-09T13:42:42.831Z,58.20
2018-10-09T13:45:11.025Z,59.00
2018-10-09T13:47:39.549Z,58.80
2018-10-09T13:50:07.812Z,58.60
2018-10-09T13:52:36.191Z,58.50
2018-10-09T13:55:04.474Z,58.20
2018-10-09T13:57:32.771Z,58.40
2018-10-09T14:00:00.996Z,57.60
2018-10-09T14:02:29.360Z,57.80
2018-10-09T14:04:57.605Z,58.00
2018-10-09T14:07:25.864Z,57.90
2018-10-09T14:09:54.168Z,58.00
2018-10-09T14:12:22.411Z,57.20
2018-10-09T14:14:51.639Z,56.80
2018-10-09T14:17:19.849Z,58.50
2018-10-09T14:19:48.035Z,57.60
2018-10-09T14:22:16.347Z,57.80
2018-10-09T14:24:44.699Z,58.00
2018-10-09T14:27:13.221Z,57.40
2018-10-09T14:29:41.393Z,57.10
2018-10-09T14:32:09.661Z,56.70
2018-10-09T14:34:37.952Z,57.20
2018-10-09T14:37:06.189Z,57.40
2018-10-09T14:39:34.463Z,58.30
2018-10-09T14:42:02.824Z,58.00
2018-10-09T14:46:04.617Z,58.50
2018-10-09T14:48:32.873Z,58.20
2018-10-09T14:51:01.154Z,59.50
2018-10-09T14:53:29.412Z,59.60
2018-10-09T14:55:57.792Z,60.00
2018-10-09T14:58:25.998Z,60.70
2018-10-09T15:00:54.274Z,60.70
2018-10-09T15:03:22.968Z,61.20
2018-10-09T15:05:54.122Z,61.60
2018-10-09T15:08:22.475Z,62.10
2018-10-09T15:10:53.832Z,62.10
2018-10-09T15:13:22.191Z,62.10
2018-10-09T15:15:50.450Z,62.30
2018-10-09T15:18:18.934Z,62.70
2018-10-09T15:20:47.332Z,63.00
2018-10-09T15:23:16.042Z,63.50
2018-10-09T15:25:44.342Z,64.10
2018-10-09T15:28:13.021Z,64.70
2018-10-09T15:30:41.449Z,64.70
2018-10-09T15:33:11.813Z,65.30
2018-10-09T15:35:40.582Z,67.80
2018-10-09T15:38:08.878Z,70.30
2018-10-09T15:40:37.315Z,70.40
2018-10-09T15:43:06.114Z,71.40
2018-10-09T15:45:35.565Z,71.90
2018-10-09T15:48:03.975Z,72.70
2018-10-09T15:50:32.554Z,74.10
2018-10-09T15:53:00.820Z,74.50
2018-10-09T15:56:04.905Z,75.60
2018-10-09T15:58:33.121Z,75.70
2018-10-09T16:01:01.481Z,76.30
2018-10-09T16:03:29.718Z,76.70
2018-10-09T16:05:58.223Z,77.40
2018-10-09T16:08:26.582Z,78.60
2018-10-09T16:10:55.077Z,79.00
2018-10-09T16:13:23.607Z,79.00
2018-10-09T16:15:51.934Z,79.40
2018-10-09T16:18:20.205Z,80.00
2018-10-09T16:20:48.593Z,81.30
2018-10-09T16:23:17.808Z,82.20
2018-10-09T16:25:46.102Z,82.80
2018-10-09T16:28:14.441Z,83.30
2018-10-09T16:30:42.751Z,84.00
2018-10-09T16:33:11.156Z,84.90
2018-10-09T16:41:06.709Z,86.30
2018-10-09T16:43:35.093Z,88.50
2018-10-09T16:46:04.311Z,89.30
2018-10-09T16:48:32.623Z,89.80
2018-10-09T16:51:01.127Z,90.20
2018-10-09T16:53:29.549Z,90.40
2018-10-09T16:55:58.042Z,90.60
2018-10-09T16:58:29.152Z,90.90
2018-10-09T17:00:58.785Z,91.10
2018-10-09T17:03:27.122Z,91.40
2018-10-09T17:05:55.608Z,91.60
2018-10-09T17:13:23.230Z,92.10
2018-10-09T17:15:51.554Z,92.60
2018-10-09T17:18:19.930Z,92.80
2018-10-09T17:20:48.433Z,93.00
2018-10-09T17:23:16.731Z,93.20
2018-10-09T17:25:45.193Z,93.40
2018-10-09T17:28:13.367Z,93.50
2018-10-09T17:30:42.758Z,93.60
2018-10-09T17:33:11.408Z,93.80
2018-10-09T17:35:39.689Z,94.00
2018-10-09T17:38:08.205Z,94.20
2018-10-09T17:40:36.713Z,94.20
2018-10-09T17:43:05.093Z,94.30
2018-10-09T17:45:33.625Z,94.40
2018-10-09T17:48:01.976Z,94.50
2018-10-09T17:50:30.351Z,94.60
2018-10-09T17:52:58.637Z,94.70
2018-10-09T17:55:27.041Z,94.80
2018-10-09T17:57:55.405Z,94.80
2018-10-09T18:00:28.922Z,94.90
2018-10-09T18:02:57.353Z,95.10
2018-10-09T18:05:25.718Z,95.10
2018-10-09T18:07:54.234Z,95.30
2018-10-09T18:10:22.530Z,95.30
2018-10-09T18:12:51.001Z,95.60
2018-10-09T18:15:32.587Z,95.70
2018-10-09T18:18:01.950Z,95.80
2018-10-09T18:20:30.380Z,95.90
2018-10-09T18:22:59.139Z,96.20
2018-10-09T18:25:27.441Z,96.40
2018-10-09T18:27:56.140Z,96.50
2018-10-09T18:30:24.669Z,96.50
2018-10-09T18:32:53.183Z,96.60
2018-10-09T18:35:21.325Z,97.00
2018-10-09T18:37:49.594Z,96.80
2018-10-09T18:40:17.878Z,97.00
2018-10-09T18:42:46.112Z,97.00
2018-10-09T18:45:14.502Z,97.10
2018-10-09T18:47:43.924Z,97.10
2018-10-09T18:50:12.288Z,97.30
2018-10-09T18:52:42.190Z,97.40
2018-10-09T18:55:12.677Z,97.50
2018-10-09T18:57:40.910Z,97.80
2018-10-09T19:00:09.764Z,97.90
2018-10-09T19:02:38.826Z,98.10
2018-10-09T19:05:07.607Z,98.10
2018-10-09T19:07:36.938Z,98.20
2018-10-09T19:10:05.349Z,98.20
2018-10-09T19:12:33.720Z,98.30
2018-10-09T19:15:02.103Z,98.30
2018-10-09T19:17:30.399Z,98.40
2018-10-09T19:19:58.792Z,98.60
2018-10-09T19:22:27.084Z,98.60
2018-10-09T19:24:55.485Z,98.60
2018-10-09T19:27:23.926Z,98.60
2018-10-09T19:29:52.113Z,98.50
2018-10-09T19:32:20.410Z,98.70
2018-10-09T19:34:48.653Z,98.70
2018-10-09T19:37:16.965Z,98.80
2018-10-09T19:39:45.360Z,98.90
2018-10-09T19:42:13.568Z,98.90
2018-10-09T19:44:42.039Z,99.20
2018-10-09T19:47:11.287Z,99.30
2018-10-09T19:49:40.574Z,99.30
2018-10-09T19:52:15.525Z,99.30
2018-10-09T19:54:44.124Z,99.20
2018-10-09T19:57:12.406Z,99.20
2018-10-09T19:59:40.728Z,99.20
2018-10-09T20:02:09.242Z,99.20
2018-10-09T20:04:37.502Z,99.60
2018-10-09T20:07:05.905Z,99.40
2018-10-09T20:09:34.190Z,99.50
2018-10-09T20:12:02.390Z,99.70
2018-10-09T20:14:31.101Z,99.70
2018-10-09T20:16:59.518Z,99.90
2018-10-09T20:19:27.796Z,99.90
2018-10-09T20:21:56.066Z,99.80
2018-10-09T20:24:24.375Z,99.70
2018-10-09T20:26:52.680Z,99.70
2018-10-09T20:29:21.088Z,99.90
2018-10-09T20:31:49.519Z,99.90
2018-10-09T20:34:17.989Z,99.90
2018-10-09T20:36:46.633Z,99.70
2018-10-09T20:39:14.919Z,99.80
2018-10-09T20:41:43.224Z,99.70
2018-10-09T20:44:11.648Z,99.90
2018-10-09T20:46:39.926Z,99.90
2018-10-09T20:49:08.222Z,99.90
2018-10-09T20:51:36.536Z,99.90
2018-10-09T20:54:05.403Z,99.90
2018-10-09T20:56:33.762Z,99.90
2018-10-09T20:59:02.136Z,99.90
2018-10-09T21:01:30.568Z,99.90
2018-10-09T21:03:58.876Z,99.90
2018-10-09T21:06:27.335Z,99.90
2018-10-09T21:08:55.609Z,99.90
2018-10-09T21:11:23.805Z,99.90
2018-10-09T21:13:52.101Z,99.90
2018-10-09T21:16:20.353Z,99.90
2018-10-09T21:18:48.703Z,99.90
2018-10-09T21:21:16.997Z,99.90
2018-10-09T21:23:45.610Z,99.90
2018-10-09T21:26:13.870Z,99.90
2018-10-09T21:28:42.413Z,99.90
2018-10-09T21:31:10.905Z,99.90
2018-10-09T21:33:39.344Z,99.90
2018-10-09T21:36:07.724Z,99.90
2018-10-09T21:38:35.949Z,99.90
2018-10-09T21:41:04.230Z,99.90
2018-10-09T21:43:32.573Z,99.90
2018-10-09T21:46:00.833Z,99.90
2018-10-09T21:48:29.078Z,99.90
2018-10-09T21:50:58.320Z,99.90
2018-10-09T21:53:26.526Z,99.90
2018-10-09T21:55:54.753Z,99.90
2018-10-09T21:58:23.001Z,99.90
2018-10-09T22:00:56.606Z,99.90
2018-10-09T22:03:24.890Z,99.90
2018-10-09T22:05:53.164Z,99.90
2018-10-09T22:08:21.392Z,99.90
2018-10-09T22:10:49.648Z,99.90
2018-10-09T22:13:18.045Z,99.90
2018-10-09T22:15:46.323Z,99.90
2018-10-09T22:23:16.569Z,99.90
2018-10-09T22:25:44.791Z,99.90
2018-10-09T22:28:13.306Z,99.90
2018-10-09T22:30:41.587Z,99.90
2018-10-09T22:33:10.021Z,99.90
2018-10-09T22:35:38.409Z,99.90
2018-10-09T22:38:06.609Z,99.90
2018-10-09T22:45:34.829Z,99.90
2018-10-09T22:48:03.038Z,99.90
2018-10-09T22:50:31.242Z,99.90
2018-10-09T22:52:59.501Z,99.90
2018-10-09T22:55:27.984Z,99.90
2018-10-09T22:57:56.170Z,99.90
2018-10-09T23:00:24.466Z,99.90
2018-10-09T23:07:59.905Z,99.90
2018-10-09T23:10:28.149Z,99.90
2018-10-09T23:13:15.245Z,99.90
2018-10-09T23:15:43.684Z,99.90
2018-10-09T23:18:12.004Z,99.90
2018-10-09T23:20:40.297Z,99.90
2018-10-09T23:23:08.435Z,99.90
2018-10-09T23:25:36.872Z,99.90
2018-10-09T23:28:05.219Z,99.90
2018-10-09T23:30:33.631Z,99.90
2018-10-09T23:33:01.857Z,99.90
2018-10-09T23:35:30.121Z,99.90
2018-10-09T23:37:58.618Z,99.90
2018-10-09T23:40:26.965Z,99.90
2018-10-09T23:42:55.329Z,99.90
2018-10-09T23:45:23.522Z,99.90
2018-10-09T23:47:56.154Z,99.90
2018-10-09T23:50:24.426Z,99.90
2018-10-09T23:52:52.624Z,99.90
2018-10-09T23:55:20.982Z,99.90
2018-10-09T23:57:49.177Z,99.90
